sensor_id;sensor_type;location;lat;lon;timestamp;P1;durP1;ratioP1;P2;durP2;ratioP2
15500;SDS011;7852;52.228;5.990;2023-07-31T00:04:12;60.8;;;58.7;;
15500;SDS011;7852;52.228;5.990;2023-07-31T00:04:12;60.1;;;58.1;;
15500;SDS011;7852;52.228;5.990;2023-07-31T00:04:12;66.5;;;64.2;;
15500;SDS011;7852;52.228;5.990;2023-07-31T00:04:12;61.7;;;59.7;;
15500;SDS011;7852;52.228;5.990;2023-07-31T00:04:12;67.1;;;65;;
15500;SDS011;7852;52.228;5.990;2023-07-31T00:05:07;58.6;;;56.4;;
15500;SDS011;7852;52.228;5.990;2023-07-31T00:06:06;61.8;;;59.8;;
15500;SDS011;7852;52.228;5.990;2023-07-31T00:07:06;70.8;;;68.4;;
15500;SDS011;7852;52.228;5.990;2023-07-31T00:08:06;72.4;;;70;;
15500;SDS011;7852;52.228;5.990;2023-07-31T00:09:06;72.7;;;70.3;;
15500;SDS011;7852;52.228;5.990;2023-07-31T00:10:06;69.8;;;67.5;;
15500;SDS011;7852;52.228;5.990;2023-07-31T00:11:06;73;;;70.6;;
15500;SDS011;7852;52.228;5.990;2023-07-31T00:12:06;72.1;;;69.7;;
15500;SDS011;7852;52.228;5.990;2023-07-31T00:13:06;72.7;;;70.2;;
15500;SDS011;7852;52.228;5.990;2023-07-31T00:14:06;75.1;;;72.6;;
15500;SDS011;7852;52.228;5.990;2023-07-31T00:15:06;66.1;;;63.8;;
15500;SDS011;7852;52.228;5.990;2023-07-31T00:16:06;65;;;62.9;;
15500;SDS011;7852;52.228;5.990;2023-07-31T00:17:06;63.3;;;61.1;;
15500;SDS011;7852;52.228;5.990;2023-07-31T00:18:06;63.3;;;61.2;;
15500;SDS011;7852;52.228;5.990;2023-07-31T00:19:06;63.4;;;61.3;;
15500;SDS011;7852;52.228;5.990;2023-07-31T00:20:06;64;;;61.7;;
15500;SDS011;7852;52.228;5.990;2023-07-31T00:21:06;64.6;;;62.5;;
15500;SDS011;7852;52.228;5.990;2023-07-31T00:22:06;67;;;64.8;;
15500;SDS011;7852;52.228;5.990;2023-07-31T00:23:06;61.2;;;59.2;;
15500;SDS011;7852;52.228;5.990;2023-07-31T00:24:06;62.1;;;60.1;;
15500;SDS011;7852;52.228;5.990;2023-07-31T00:25:06;58.4;;;56.3;;
15500;SDS011;7852;52.228;5.990;2023-07-31T00:26:06;58.6;;;56.7;;
15500;SDS011;7852;52.228;5.990;2023-07-31T00:27:06;62.4;;;60.3;;
15500;SDS011;7852;52.228;5.990;2023-07-31T00:28:06;56.8;;;55;;
15500;SDS011;7852;52.228;5.990;2023-07-31T00:29:06;64;;;61.9;;
15500;SDS011;7852;52.228;5.990;2023-07-31T00:30:06;59.1;;;57.2;;
15500;SDS011;7852;52.228;5.990;2023-07-31T00:31:06;61;;;58.9;;
15500;SDS011;7852;52.228;5.990;2023-07-31T00:32:06;57.6;;;55.7;;
15500;SDS011;7852;52.228;5.990;2023-07-31T00:33:06;60.9;;;58.9;;
15500;SDS011;7852;52.228;5.990;2023-07-31T00:34:06;66.2;;;64;;
15500;SDS011;7852;52.228;5.990;2023-07-31T00:35:06;63.7;;;61.6;;
15500;SDS011;7852;52.228;5.990;2023-07-31T00:36:06;62;;;59.9;;
15500;SDS011;7852;52.228;5.990;2023-07-31T00:37:06;64.2;;;62.1;;
15500;SDS011;7852;52.228;5.990;2023-07-31T00:38:06;62.5;;;60.2;;
15500;SDS011;7852;52.228;5.990;2023-07-31T00:39:06;56.7;;;54.8;;
15500;SDS011;7852;52.228;5.990;2023-07-31T00:40:06;55;;;53.2;;
15500;SDS011;7852;52.228;5.990;2023-07-31T00:41:06;65.9;;;63.7;;
15500;SDS011;7852;52.228;5.990;2023-07-31T00:42:06;67.8;;;65.6;;
15500;SDS011;7852;52.228;5.990;2023-07-31T00:43:06;66.5;;;64.3;;
15500;SDS011;7852;52.228;5.990;2023-07-31T00:44:06;61.1;;;59.1;;
15500;SDS011;7852;52.228;5.990;2023-07-31T00:45:06;60.8;;;58.8;;
15500;SDS011;7852;52.228;5.990;2023-07-31T00:46:06;61.2;;;59.2;;
15500;SDS011;7852;52.228;5.990;2023-07-31T00:47:06;62.9;;;60.7;;
15500;SDS011;7852;52.228;5.990;2023-07-31T00:48:06;61.3;;;59.3;;
15500;SDS011;7852;52.228;5.990;2023-07-31T00:49:06;59.6;;;57.6;;
15500;SDS011;7852;52.228;5.990;2023-07-31T00:50:06;62.8;;;60.7;;
15500;SDS011;7852;52.228;5.990;2023-07-31T00:51:06;61.7;;;59.7;;
15500;SDS011;7852;52.228;5.990;2023-07-31T00:52:06;61.4;;;59.3;;
15500;SDS011;7852;52.228;5.990;2023-07-31T00:53:06;61.5;;;59.5;;
15500;SDS011;7852;52.228;5.990;2023-07-31T00:54:06;60.5;;;58.3;;
15500;SDS011;7852;52.228;5.990;2023-07-31T00:55:06;64.3;;;62;;
15500;SDS011;7852;52.228;5.990;2023-07-31T00:56:06;56.7;;;54.8;;
15500;SDS011;7852;52.228;5.990;2023-07-31T00:57:06;53.7;;;51.9;;
15500;SDS011;7852;52.228;5.990;2023-07-31T00:58:06;50.7;;;49;;
15500;SDS011;7852;52.228;5.990;2023-07-31T00:59:06;40.4;;;39.1;;
15500;SDS011;7852;52.228;5.990;2023-07-31T01:00:08;40.3;;;39;;
15500;SDS011;7852;52.228;5.990;2023-07-31T01:01:06;42.4;;;41;;
15500;SDS011;7852;52.228;5.990;2023-07-31T01:02:06;38.7;;;37.4;;
15500;SDS011;7852;52.228;5.990;2023-07-31T01:03:06;47.1;;;45.6;;
15500;SDS011;7852;52.228;5.990;2023-07-31T01:04:06;46.4;;;44.8;;
15500;SDS011;7852;52.228;5.990;2023-07-31T01:05:06;46.3;;;44.8;;
15500;SDS011;7852;52.228;5.990;2023-07-31T01:06:10;48.1;;;46.5;;
15500;SDS011;7852;52.228;5.990;2023-07-31T01:07:07;51.5;;;49.8;;
15500;SDS011;7852;52.228;5.990;2023-07-31T01:08:08;53.6;;;51.8;;
15500;SDS011;7852;52.228;5.990;2023-07-31T01:09:07;49.7;;;48.1;;
15500;SDS011;7852;52.228;5.990;2023-07-31T01:10:08;51.5;;;49.8;;
15500;SDS011;7852;52.228;5.990;2023-07-31T01:11:07;55.1;;;53.3;;
15500;SDS011;7852;52.228;5.990;2023-07-31T01:12:06;56.7;;;54.8;;
15500;SDS011;7852;52.228;5.990;2023-07-31T01:13:06;56;;;54.2;;
15500;SDS011;7852;52.228;5.990;2023-07-31T01:14:06;57.1;;;55.1;;
15500;SDS011;7852;52.228;5.990;2023-07-31T01:15:07;56.3;;;54.3;;
15500;SDS011;7852;52.228;5.990;2023-07-31T01:16:06;54.7;;;52.8;;
15500;SDS011;7852;52.228;5.990;2023-07-31T01:17:06;56.5;;;54.6;;
15500;SDS011;7852;52.228;5.990;2023-07-31T01:18:06;56.4;;;54.5;;
15500;SDS011;7852;52.228;5.990;2023-07-31T01:19:06;61.8;;;59.5;;
15500;SDS011;7852;52.228;5.990;2023-07-31T01:20:08;61.4;;;59.4;;
15500;SDS011;7852;52.228;5.990;2023-07-31T01:21:10;62.3;;;60.2;;
15500;SDS011;7852;52.228;5.990;2023-07-31T01:22:12;64;;;61.8;;
15500;SDS011;7852;52.228;5.990;2023-07-31T01:23:08;74.3;;;71.8;;
15500;SDS011;7852;52.228;5.990;2023-07-31T01:24:16;72.8;;;70.3;;
15500;SDS011;7852;52.228;5.990;2023-07-31T01:25:10;68;;;65.6;;
15500;SDS011;7852;52.228;5.990;2023-07-31T01:26:09;72.8;;;70.1;;
15500;SDS011;7852;52.228;5.990;2023-07-31T01:27:07;81.1;;;78.3;;
15500;SDS011;7852;52.228;5.990;2023-07-31T01:28:07;76.8;;;74.2;;
15500;SDS011;7852;52.228;5.990;2023-07-31T01:29:07;68.8;;;66.4;;
15500;SDS011;7852;52.228;5.990;2023-07-31T01:30:08;58.8;;;56.8;;
15500;SDS011;7852;52.228;5.990;2023-07-31T01:31:06;48.2;;;46.5;;
15500;SDS011;7852;52.228;5.990;2023-07-31T01:32:06;36.4;;;35;;
15500;SDS011;7852;52.228;5.990;2023-07-31T01:33:06;34.6;;;33.3;;
15500;SDS011;7852;52.228;5.990;2023-07-31T01:34:06;30.9;;;29.9;;
15500;SDS011;7852;52.228;5.990;2023-07-31T01:35:06;33.1;;;31.9;;
15500;SDS011;7852;52.228;5.990;2023-07-31T01:36:07;32.8;;;31.5;;
15500;SDS011;7852;52.228;5.990;2023-07-31T01:37:07;29.7;;;28.6;;
15500;SDS011;7852;52.228;5.990;2023-07-31T01:38:07;23.5;;;22.7;;
15500;SDS011;7852;52.228;5.990;2023-07-31T01:39:07;28.5;;;27.5;;
15500;SDS011;7852;52.228;5.990;2023-07-31T01:40:07;21.7;;;20.9;;
15500;SDS011;7852;52.228;5.990;2023-07-31T01:41:07;21.4;;;20.5;;
15500;SDS011;7852;52.228;5.990;2023-07-31T01:42:07;18.5;;;17.8;;
15500;SDS011;7852;52.228;5.990;2023-07-31T01:43:07;19.5;;;18.8;;
15500;SDS011;7852;52.228;5.990;2023-07-31T01:44:07;17.6;;;17;;
15500;SDS011;7852;52.228;5.990;2023-07-31T01:45:07;22.2;;;21.4;;
15500;SDS011;7852;52.228;5.990;2023-07-31T01:46:07;34;;;32.6;;
15500;SDS011;7852;52.228;5.990;2023-07-31T01:47:07;25.9;;;24.8;;
15500;SDS011;7852;52.228;5.990;2023-07-31T01:48:07;21.9;;;21;;
15500;SDS011;7852;52.228;5.990;2023-07-31T01:49:07;19.2;;;18.4;;
15500;SDS011;7852;52.228;5.990;2023-07-31T01:50:07;20.4;;;19.5;;
15500;SDS011;7852;52.228;5.990;2023-07-31T01:51:07;21.2;;;20.4;;
15500;SDS011;7852;52.228;5.990;2023-07-31T01:52:07;18.9;;;18.2;;
15500;SDS011;7852;52.228;5.990;2023-07-31T01:53:07;20.1;;;19.3;;
15500;SDS011;7852;52.228;5.990;2023-07-31T01:54:07;22.9;;;22;;
15500;SDS011;7852;52.228;5.990;2023-07-31T01:55:07;26.9;;;25.9;;
15500;SDS011;7852;52.228;5.990;2023-07-31T01:56:08;25.7;;;24.8;;
15500;SDS011;7852;52.228;5.990;2023-07-31T01:57:07;25.8;;;24.7;;
15500;SDS011;7852;52.228;5.990;2023-07-31T01:58:07;25.5;;;24.5;;
15500;SDS011;7852;52.228;5.990;2023-07-31T01:59:07;24.3;;;23.1;;
15500;SDS011;7852;52.228;5.990;2023-07-31T02:00:07;23;;;21.8;;
15500;SDS011;7852;52.228;5.990;2023-07-31T02:01:07;19.7;;;18.8;;
15500;SDS011;7852;52.228;5.990;2023-07-31T02:02:07;21.2;;;20.2;;
15500;SDS011;7852;52.228;5.990;2023-07-31T02:03:07;18.2;;;17.3;;
15500;SDS011;7852;52.228;5.990;2023-07-31T02:04:07;17.7;;;16.9;;
15500;SDS011;7852;52.228;5.990;2023-07-31T02:05:07;18.7;;;17.9;;
15500;SDS011;7852;52.228;5.990;2023-07-31T02:06:08;21.6;;;20.6;;
15500;SDS011;7852;52.228;5.990;2023-07-31T02:07:08;19.4;;;18.4;;
15500;SDS011;7852;52.228;5.990;2023-07-31T02:08:08;18;;;17;;
15500;SDS011;7852;52.228;5.990;2023-07-31T02:09:08;14.7;;;14;;
15500;SDS011;7852;52.228;5.990;2023-07-31T02:10:08;14.1;;;13.5;;
15500;SDS011;7852;52.228;5.990;2023-07-31T02:11:08;12.8;;;12.1;;
15500;SDS011;7852;52.228;5.990;2023-07-31T02:12:08;13;;;12.3;;
15500;SDS011;7852;52.228;5.990;2023-07-31T02:13:08;11.4;;;10.6;;
15500;SDS011;7852;52.228;5.990;2023-07-31T02:14:08;11.2;;;10.4;;
15500;SDS011;7852;52.228;5.990;2023-07-31T02:15:08;12.1;;;11.4;;
15500;SDS011;7852;52.228;5.990;2023-07-31T02:16:08;12.1;;;11.4;;
15500;SDS011;7852;52.228;5.990;2023-07-31T02:17:08;12.8;;;12.1;;
15500;SDS011;7852;52.228;5.990;2023-07-31T02:18:08;11.5;;;10.7;;
15500;SDS011;7852;52.228;5.990;2023-07-31T02:19:08;10.8;;;10.1;;
15500;SDS011;7852;52.228;5.990;2023-07-31T02:20:08;9.7;;;9.1;;
15500;SDS011;7852;52.228;5.990;2023-07-31T02:21:08;10.6;;;10;;
15500;SDS011;7852;52.228;5.990;2023-07-31T02:22:08;12.7;;;11.9;;
15500;SDS011;7852;52.228;5.990;2023-07-31T02:23:08;15.6;;;14.5;;
15500;SDS011;7852;52.228;5.990;2023-07-31T02:24:08;16.2;;;15.4;;
15500;SDS011;7852;52.228;5.990;2023-07-31T02:25:08;16.5;;;15.6;;
15500;SDS011;7852;52.228;5.990;2023-07-31T02:26:08;16.4;;;15.6;;
15500;SDS011;7852;52.228;5.990;2023-07-31T02:27:08;18.1;;;17.2;;
15500;SDS011;7852;52.228;5.990;2023-07-31T02:28:08;19.6;;;18.6;;
15500;SDS011;7852;52.228;5.990;2023-07-31T02:29:08;19.9;;;18.8;;
15500;SDS011;7852;52.228;5.990;2023-07-31T02:30:08;21.5;;;20.5;;
15500;SDS011;7852;52.228;5.990;2023-07-31T02:31:08;23.4;;;22.3;;
15500;SDS011;7852;52.228;5.990;2023-07-31T02:32:08;24.4;;;23.3;;
15500;SDS011;7852;52.228;5.990;2023-07-31T02:33:08;26.6;;;25.3;;
15500;SDS011;7852;52.228;5.990;2023-07-31T02:34:08;26.1;;;24.8;;
15500;SDS011;7852;52.228;5.990;2023-07-31T02:35:08;27.2;;;26.1;;
15500;SDS011;7852;52.228;5.990;2023-07-31T02:36:08;29.2;;;27.9;;
15500;SDS011;7852;52.228;5.990;2023-07-31T02:37:08;33.8;;;32.3;;
15500;SDS011;7852;52.228;5.990;2023-07-31T02:38:08;35.8;;;34.3;;
15500;SDS011;7852;52.228;5.990;2023-07-31T02:39:08;38.8;;;37.3;;
15500;SDS011;7852;52.228;5.990;2023-07-31T02:40:08;39.3;;;37.6;;
15500;SDS011;7852;52.228;5.990;2023-07-31T02:41:08;40.6;;;38.9;;
15500;SDS011;7852;52.228;5.990;2023-07-31T02:42:08;41.4;;;39.7;;
15500;SDS011;7852;52.228;5.990;2023-07-31T02:43:08;45.1;;;43.3;;
15500;SDS011;7852;52.228;5.990;2023-07-31T02:44:08;45.8;;;43.9;;
15500;SDS011;7852;52.228;5.990;2023-07-31T02:45:08;44.5;;;42.7;;
15500;SDS011;7852;52.228;5.990;2023-07-31T02:46:08;45.1;;;43.4;;
15500;SDS011;7852;52.228;5.990;2023-07-31T02:47:08;43.4;;;41.5;;
15500;SDS011;7852;52.228;5.990;2023-07-31T02:48:08;41.8;;;40;;
15500;SDS011;7852;52.228;5.990;2023-07-31T02:49:08;43.5;;;41.6;;
15500;SDS011;7852;52.228;5.990;2023-07-31T02:50:08;47.6;;;45.5;;
15500;SDS011;7852;52.228;5.990;2023-07-31T02:51:08;44.2;;;42.2;;
15500;SDS011;7852;52.228;5.990;2023-07-31T02:52:08;42.5;;;40.7;;
15500;SDS011;7852;52.228;5.990;2023-07-31T02:53:08;47.8;;;45.6;;
15500;SDS011;7852;52.228;5.990;2023-07-31T02:54:08;48.7;;;46.3;;
15500;SDS011;7852;52.228;5.990;2023-07-31T02:55:08;47.8;;;45.7;;
15500;SDS011;7852;52.228;5.990;2023-07-31T02:56:08;48.4;;;45.8;;
15500;SDS011;7852;52.228;5.990;2023-07-31T02:57:08;50.2;;;47.8;;
15500;SDS011;7852;52.228;5.990;2023-07-31T02:58:08;50.2;;;47.7;;
15500;SDS011;7852;52.228;5.990;2023-07-31T02:59:08;47;;;44.5;;
15500;SDS011;7852;52.228;5.990;2023-07-31T03:00:08;48.6;;;45.9;;
15500;SDS011;7852;52.228;5.990;2023-07-31T03:01:08;46.1;;;43.6;;
15500;SDS011;7852;52.228;5.990;2023-07-31T03:02:08;43.4;;;41.1;;
15500;SDS011;7852;52.228;5.990;2023-07-31T03:03:08;42.8;;;40.5;;
15500;SDS011;7852;52.228;5.990;2023-07-31T03:04:08;43;;;40.6;;
15500;SDS011;7852;52.228;5.990;2023-07-31T03:05:08;42.5;;;40.1;;
15500;SDS011;7852;52.228;5.990;2023-07-31T03:06:08;40.6;;;38.6;;
15500;SDS011;7852;52.228;5.990;2023-07-31T03:07:08;43.4;;;41;;
15500;SDS011;7852;52.228;5.990;2023-07-31T03:08:08;45.8;;;43.3;;
15500;SDS011;7852;52.228;5.990;2023-07-31T03:09:08;42.7;;;40.3;;
15500;SDS011;7852;52.228;5.990;2023-07-31T03:10:08;38.1;;;35.7;;
15500;SDS011;7852;52.228;5.990;2023-07-31T03:11:08;39;;;36.2;;
15500;SDS011;7852;52.228;5.990;2023-07-31T03:12:08;34.4;;;31.8;;
15500;SDS011;7852;52.228;5.990;2023-07-31T03:13:08;35.3;;;33.1;;
15500;SDS011;7852;52.228;5.990;2023-07-31T03:14:08;30.9;;;28.3;;
15500;SDS011;7852;52.228;5.990;2023-07-31T03:15:08;31.2;;;28.8;;
15500;SDS011;7852;52.228;5.990;2023-07-31T03:16:08;32.2;;;29.8;;
15500;SDS011;7852;52.228;5.990;2023-07-31T03:17:08;27;;;24.6;;
15500;SDS011;7852;52.228;5.990;2023-07-31T03:18:08;27.6;;;24.8;;
15500;SDS011;7852;52.228;5.990;2023-07-31T03:19:08;27.5;;;25.6;;
15500;SDS011;7852;52.228;5.990;2023-07-31T03:20:08;28.5;;;25.6;;
15500;SDS011;7852;52.228;5.990;2023-07-31T03:21:08;26.5;;;23.9;;
15500;SDS011;7852;52.228;5.990;2023-07-31T03:22:08;25.8;;;23.5;;
15500;SDS011;7852;52.228;5.990;2023-07-31T03:23:08;28.5;;;26.2;;
15500;SDS011;7852;52.228;5.990;2023-07-31T03:24:08;29.4;;;27.1;;
15500;SDS011;7852;52.228;5.990;2023-07-31T03:25:08;30.8;;;28.1;;
15500;SDS011;7852;52.228;5.990;2023-07-31T03:26:08;25.3;;;22.8;;
15500;SDS011;7852;52.228;5.990;2023-07-31T03:27:08;22.9;;;20.6;;
15500;SDS011;7852;52.228;5.990;2023-07-31T03:28:08;22.6;;;19.5;;
15500;SDS011;7852;52.228;5.990;2023-07-31T03:29:08;27.3;;;24.7;;
15500;SDS011;7852;52.228;5.990;2023-07-31T03:30:08;23.8;;;21.1;;
15500;SDS011;7852;52.228;5.990;2023-07-31T03:31:08;20.7;;;18.8;;
15500;SDS011;7852;52.228;5.990;2023-07-31T03:32:08;19.3;;;17.4;;
15500;SDS011;7852;52.228;5.990;2023-07-31T03:33:08;21.8;;;17.3;;
15500;SDS011;7852;52.228;5.990;2023-07-31T03:34:08;21;;;18.6;;
15500;SDS011;7852;52.228;5.990;2023-07-31T03:35:08;26.9;;;24.3;;
15500;SDS011;7852;52.228;5.990;2023-07-31T03:36:08;22.5;;;18.2;;
15500;SDS011;7852;52.228;5.990;2023-07-31T03:37:08;20.5;;;16.2;;
15500;SDS011;7852;52.228;5.990;2023-07-31T03:38:08;21.3;;;17.2;;
15500;SDS011;7852;52.228;5.990;2023-07-31T03:39:08;21.7;;;17.1;;
15500;SDS011;7852;52.228;5.990;2023-07-31T03:40:09;19.9;;;16.6;;
15500;SDS011;7852;52.228;5.990;2023-07-31T03:41:08;19.5;;;17.5;;
15500;SDS011;7852;52.228;5.990;2023-07-31T03:42:08;19;;;17.1;;
15500;SDS011;7852;52.228;5.990;2023-07-31T03:43:08;18.9;;;16.9;;
15500;SDS011;7852;52.228;5.990;2023-07-31T03:44:08;18.6;;;16.5;;
15500;SDS011;7852;52.228;5.990;2023-07-31T03:45:08;19.7;;;15.6;;
15500;SDS011;7852;52.228;5.990;2023-07-31T03:46:08;24.2;;;15.3;;
15500;SDS011;7852;52.228;5.990;2023-07-31T03:47:08;20.3;;;15.9;;
15500;SDS011;7852;52.228;5.990;2023-07-31T03:48:08;21.8;;;16.6;;
15500;SDS011;7852;52.228;5.990;2023-07-31T03:49:08;18;;;15.3;;
15500;SDS011;7852;52.228;5.990;2023-07-31T03:50:08;24.7;;;16.4;;
15500;SDS011;7852;52.228;5.990;2023-07-31T03:51:08;26.2;;;16.2;;
15500;SDS011;7852;52.228;5.990;2023-07-31T03:52:08;19.9;;;17;;
15500;SDS011;7852;52.228;5.990;2023-07-31T03:53:08;18.6;;;16.4;;
15500;SDS011;7852;52.228;5.990;2023-07-31T03:54:08;17.3;;;15.4;;
15500;SDS011;7852;52.228;5.990;2023-07-31T03:55:08;17.6;;;15.7;;
15500;SDS011;7852;52.228;5.990;2023-07-31T03:56:08;19.7;;;17.4;;
15500;SDS011;7852;52.228;5.990;2023-07-31T03:57:08;22.2;;;15.9;;
15500;SDS011;7852;52.228;5.990;2023-07-31T03:58:08;21;;;17.5;;
15500;SDS011;7852;52.228;5.990;2023-07-31T03:59:08;22;;;16.6;;
15500;SDS011;7852;52.228;5.990;2023-07-31T04:00:08;19.8;;;15.6;;
15500;SDS011;7852;52.228;5.990;2023-07-31T04:01:08;21.7;;;16.6;;
15500;SDS011;7852;52.228;5.990;2023-07-31T04:02:08;23.2;;;15.9;;
15500;SDS011;7852;52.228;5.990;2023-07-31T04:03:08;25.8;;;16.3;;
15500;SDS011;7852;52.228;5.990;2023-07-31T04:04:08;27.8;;;16.2;;
15500;SDS011;7852;52.228;5.990;2023-07-31T04:05:08;18.7;;;16;;
15500;SDS011;7852;52.228;5.990;2023-07-31T04:06:08;20.1;;;16.3;;
15500;SDS011;7852;52.228;5.990;2023-07-31T04:07:08;25.7;;;18.1;;
15500;SDS011;7852;52.228;5.990;2023-07-31T04:08:08;24;;;17.9;;
15500;SDS011;7852;52.228;5.990;2023-07-31T04:09:08;19.5;;;16.9;;
15500;SDS011;7852;52.228;5.990;2023-07-31T04:10:08;24.2;;;18.6;;
15500;SDS011;7852;52.228;5.990;2023-07-31T04:11:08;21.6;;;16.4;;
15500;SDS011;7852;52.228;5.990;2023-07-31T04:12:08;19.1;;;15.9;;
15500;SDS011;7852;52.228;5.990;2023-07-31T04:13:08;24.3;;;17.2;;
15500;SDS011;7852;52.228;5.990;2023-07-31T04:14:08;27.8;;;17.4;;
15500;SDS011;7852;52.228;5.990;2023-07-31T04:15:08;33;;;30.2;;
15500;SDS011;7852;52.228;5.990;2023-07-31T04:16:08;19.9;;;16.8;;
15500;SDS011;7852;52.228;5.990;2023-07-31T04:17:08;20;;;16;;
15500;SDS011;7852;52.228;5.990;2023-07-31T04:18:08;24.6;;;18;;
15500;SDS011;7852;52.228;5.990;2023-07-31T04:19:08;21.8;;;18.5;;
15500;SDS011;7852;52.228;5.990;2023-07-31T04:20:08;26.2;;;17.8;;
15500;SDS011;7852;52.228;5.990;2023-07-31T04:21:08;24.4;;;17.3;;
15500;SDS011;7852;52.228;5.990;2023-07-31T04:22:08;21.2;;;17.9;;
15500;SDS011;7852;52.228;5.990;2023-07-31T04:23:08;25.3;;;17.3;;
15500;SDS011;7852;52.228;5.990;2023-07-31T04:24:08;23.9;;;17.7;;
15500;SDS011;7852;52.228;5.990;2023-07-31T04:25:08;22.2;;;17.3;;
15500;SDS011;7852;52.228;5.990;2023-07-31T04:26:08;22.8;;;17.6;;
15500;SDS011;7852;52.228;5.990;2023-07-31T04:27:08;20.6;;;16.6;;
15500;SDS011;7852;52.228;5.990;2023-07-31T04:28:08;25.1;;;16.1;;
15500;SDS011;7852;52.228;5.990;2023-07-31T04:29:08;23.8;;;18.5;;
15500;SDS011;7852;52.228;5.990;2023-07-31T04:30:08;22.6;;;17.9;;
15500;SDS011;7852;52.228;5.990;2023-07-31T04:31:08;21.7;;;17.7;;
15500;SDS011;7852;52.228;5.990;2023-07-31T04:32:08;26;;;19.5;;
15500;SDS011;7852;52.228;5.990;2023-07-31T04:33:08;23.2;;;17.2;;
15500;SDS011;7852;52.228;5.990;2023-07-31T04:34:08;21.1;;;16.7;;
15500;SDS011;7852;52.228;5.990;2023-07-31T04:35:08;24.7;;;17.7;;
15500;SDS011;7852;52.228;5.990;2023-07-31T04:36:08;21.4;;;16;;
15500;SDS011;7852;52.228;5.990;2023-07-31T04:37:08;19.2;;;15.9;;
15500;SDS011;7852;52.228;5.990;2023-07-31T04:38:08;27.7;;;17.5;;
15500;SDS011;7852;52.228;5.990;2023-07-31T04:39:08;22.4;;;16.5;;
15500;SDS011;7852;52.228;5.990;2023-07-31T04:40:08;19.5;;;14.5;;
15500;SDS011;7852;52.228;5.990;2023-07-31T04:41:08;19.2;;;15.9;;
15500;SDS011;7852;52.228;5.990;2023-07-31T04:42:08;19.3;;;14.3;;
15500;SDS011;7852;52.228;5.990;2023-07-31T04:43:08;19.6;;;14;;
15500;SDS011;7852;52.228;5.990;2023-07-31T04:44:08;20.3;;;15.6;;
15500;SDS011;7852;52.228;5.990;2023-07-31T04:45:08;22.6;;;14.5;;
15500;SDS011;7852;52.228;5.990;2023-07-31T04:46:08;22.2;;;14.8;;
15500;SDS011;7852;52.228;5.990;2023-07-31T04:47:08;23.7;;;16.8;;
15500;SDS011;7852;52.228;5.990;2023-07-31T04:48:08;22.8;;;15.8;;
15500;SDS011;7852;52.228;5.990;2023-07-31T04:49:08;22.4;;;15.6;;
15500;SDS011;7852;52.228;5.990;2023-07-31T04:50:08;19.9;;;15;;
15500;SDS011;7852;52.228;5.990;2023-07-31T04:51:08;24.4;;;16.6;;
15500;SDS011;7852;52.228;5.990;2023-07-31T04:52:08;19.2;;;16.2;;
15500;SDS011;7852;52.228;5.990;2023-07-31T04:53:08;22.2;;;15.6;;
15500;SDS011;7852;52.228;5.990;2023-07-31T04:54:08;17.2;;;15;;
15500;SDS011;7852;52.228;5.990;2023-07-31T04:55:08;22.2;;;17.3;;
15500;SDS011;7852;52.228;5.990;2023-07-31T04:56:08;19.7;;;16.4;;
15500;SDS011;7852;52.228;5.990;2023-07-31T04:57:08;21.8;;;17.2;;
15500;SDS011;7852;52.228;5.990;2023-07-31T04:58:08;23;;;17.1;;
15500;SDS011;7852;52.228;5.990;2023-07-31T04:59:08;22.4;;;18.9;;
15500;SDS011;7852;52.228;5.990;2023-07-31T05:00:08;21.4;;;18.1;;
15500;SDS011;7852;52.228;5.990;2023-07-31T05:01:08;25.6;;;22.9;;
15500;SDS011;7852;52.228;5.990;2023-07-31T05:02:08;23.2;;;19.7;;
15500;SDS011;7852;52.228;5.990;2023-07-31T05:03:08;20;;;17.4;;
15500;SDS011;7852;52.228;5.990;2023-07-31T05:04:08;18.9;;;16;;
15500;SDS011;7852;52.228;5.990;2023-07-31T05:05:08;26.3;;;23.6;;
15500;SDS011;7852;52.228;5.990;2023-07-31T05:06:08;23.5;;;16.1;;
15500;SDS011;7852;52.228;5.990;2023-07-31T05:07:08;22.6;;;17.1;;
15500;SDS011;7852;52.228;5.990;2023-07-31T05:08:08;18.8;;;16.8;;
15500;SDS011;7852;52.228;5.990;2023-07-31T05:09:08;18.3;;;15.9;;
15500;SDS011;7852;52.228;5.990;2023-07-31T05:10:08;20.7;;;17.3;;
15500;SDS011;7852;52.228;5.990;2023-07-31T05:11:08;22.9;;;16.3;;
15500;SDS011;7852;52.228;5.990;2023-07-31T05:12:08;22.3;;;17.6;;
15500;SDS011;7852;52.228;5.990;2023-07-31T05:13:08;21.4;;;16.6;;
15500;SDS011;7852;52.228;5.990;2023-07-31T05:14:08;22.1;;;16.6;;
15500;SDS011;7852;52.228;5.990;2023-07-31T05:15:08;19.9;;;16.6;;
15500;SDS011;7852;52.228;5.990;2023-07-31T05:16:08;21.8;;;16.8;;
15500;SDS011;7852;52.228;5.990;2023-07-31T05:17:08;22.5;;;17.2;;
15500;SDS011;7852;52.228;5.990;2023-07-31T05:18:08;23.8;;;16.7;;
15500;SDS011;7852;52.228;5.990;2023-07-31T05:19:08;21.6;;;17.4;;
15500;SDS011;7852;52.228;5.990;2023-07-31T05:20:08;18.3;;;16.2;;
15500;SDS011;7852;52.228;5.990;2023-07-31T05:21:08;21;;;17.5;;
15500;SDS011;7852;52.228;5.990;2023-07-31T05:22:08;26.5;;;16;;
15500;SDS011;7852;52.228;5.990;2023-07-31T05:23:08;19.6;;;14.8;;
15500;SDS011;7852;52.228;5.990;2023-07-31T05:24:08;20.2;;;14.9;;
15500;SDS011;7852;52.228;5.990;2023-07-31T05:25:08;21.4;;;16.4;;
15500;SDS011;7852;52.228;5.990;2023-07-31T05:26:08;16.5;;;14.9;;
15500;SDS011;7852;52.228;5.990;2023-07-31T05:27:08;21.8;;;14.9;;
15500;SDS011;7852;52.228;5.990;2023-07-31T05:28:08;19.7;;;14.4;;
15500;SDS011;7852;52.228;5.990;2023-07-31T05:29:08;17.3;;;15.2;;
15500;SDS011;7852;52.228;5.990;2023-07-31T05:30:08;21.5;;;16.1;;
15500;SDS011;7852;52.228;5.990;2023-07-31T05:31:08;23;;;16.4;;
15500;SDS011;7852;52.228;5.990;2023-07-31T05:32:08;20.7;;;15.4;;
15500;SDS011;7852;52.228;5.990;2023-07-31T05:33:08;21.7;;;16.5;;
15500;SDS011;7852;52.228;5.990;2023-07-31T05:34:08;18.4;;;16.5;;
15500;SDS011;7852;52.228;5.990;2023-07-31T05:35:08;22.5;;;17;;
15500;SDS011;7852;52.228;5.990;2023-07-31T05:36:08;19.9;;;15.2;;
15500;SDS011;7852;52.228;5.990;2023-07-31T05:37:09;24.5;;;17;;
15500;SDS011;7852;52.228;5.990;2023-07-31T05:38:08;22.3;;;16.3;;
15500;SDS011;7852;52.228;5.990;2023-07-31T05:39:08;21.1;;;17.5;;
15500;SDS011;7852;52.228;5.990;2023-07-31T05:40:08;22.6;;;20.4;;
15500;SDS011;7852;52.228;5.990;2023-07-31T05:41:08;19.1;;;15.6;;
15500;SDS011;7852;52.228;5.990;2023-07-31T05:42:08;22.4;;;16.7;;
15500;SDS011;7852;52.228;5.990;2023-07-31T05:43:08;24.2;;;19.3;;
15500;SDS011;7852;52.228;5.990;2023-07-31T05:46:08;21.1;;;18.9;;
15500;SDS011;7852;52.228;5.990;2023-07-31T05:47:09;20.2;;;18.1;;
15500;SDS011;7852;52.228;5.990;2023-07-31T05:48:09;22.6;;;20.1;;
15500;SDS011;7852;52.228;5.990;2023-07-31T05:49:09;21.8;;;19.4;;
15500;SDS011;7852;52.228;5.990;2023-07-31T05:50:09;21.8;;;18.8;;
15500;SDS011;7852;52.228;5.990;2023-07-31T05:51:11;20;;;18;;
15500;SDS011;7852;52.228;5.990;2023-07-31T05:52:11;18.5;;;16.3;;
15500;SDS011;7852;52.228;5.990;2023-07-31T05:53:12;22.3;;;20.3;;
15500;SDS011;7852;52.228;5.990;2023-07-31T05:54:13;20.6;;;18.4;;
15500;SDS011;7852;52.228;5.990;2023-07-31T05:55:13;25.6;;;23.8;;
15500;SDS011;7852;52.228;5.990;2023-07-31T05:56:13;19.9;;;17.9;;
15500;SDS011;7852;52.228;5.990;2023-07-31T05:57:13;25;;;23.1;;
15500;SDS011;7852;52.228;5.990;2023-07-31T05:58:13;24.4;;;22.4;;
15500;SDS011;7852;52.228;5.990;2023-07-31T05:59:13;27.1;;;25.1;;
15500;SDS011;7852;52.228;5.990;2023-07-31T06:00:13;26.9;;;24.6;;
15500;SDS011;7852;52.228;5.990;2023-07-31T06:01:15;34.4;;;32.1;;
15500;SDS011;7852;52.228;5.990;2023-07-31T06:02:15;39.2;;;36.6;;
15500;SDS011;7852;52.228;5.990;2023-07-31T06:03:15;37.9;;;35.4;;
15500;SDS011;7852;52.228;5.990;2023-07-31T06:04:15;28.5;;;26.6;;
15500;SDS011;7852;52.228;5.990;2023-07-31T06:05:15;31.4;;;29;;
15500;SDS011;7852;52.228;5.990;2023-07-31T06:06:15;35.2;;;32.7;;
15500;SDS011;7852;52.228;5.990;2023-07-31T06:07:15;39.9;;;37.2;;
15500;SDS011;7852;52.228;5.990;2023-07-31T06:08:15;44.1;;;41.5;;
15500;SDS011;7852;52.228;5.990;2023-07-31T06:09:15;45;;;42;;
15500;SDS011;7852;52.228;5.990;2023-07-31T06:10:15;47.6;;;44.8;;
15500;SDS011;7852;52.228;5.990;2023-07-31T06:11:15;41.9;;;39.4;;